sensor_id;sensor_type;location;lat;lon;timestamp;P1;durP1;ratioP1;P2;durP2;ratioP2
21758;SDS011;11041;50.854;20.580;2022-08-19T00:01:54;21.02;;;18.73;;
21758;SDS011;11041;50.854;20.580;2022-08-19T00:04:25;21.20;;;18.90;;
21758;SDS011;11041;50.854;20.580;2022-08-19T00:06:57;23.83;;;18.52;;
21758;SDS011;11041;50.854;20.580;2022-08-19T00:09:25;23.13;;;19.13;;
21758;SDS011;11041;50.854;20.580;2022-08-19T00:11:53;19.40;;;16.98;;
21758;SDS011;11041;50.854;20.580;2022-08-19T00:14:22;28.38;;;18.55;;
21758;SDS011;11041;50.854;20.580;2022-08-19T00:16:52;24.08;;;18.33;;
21758;SDS011;11041;50.854;20.580;2022-08-19T00:19:20;23.75;;;18.60;;
21758;SDS011;11041;50.854;20.580;2022-08-19T00:21:49;21.67;;;17.73;;
21758;SDS011;11041;50.854;20.580;2022-08-19T00:24:17;20.92;;;17.80;;
21758;SDS011;11041;50.854;20.580;2022-08-19T00:26:44;25.20;;;18.27;;
21758;SDS011;11041;50.854;20.580;2022-08-19T00:29:12;22.33;;;17.85;;
21758;SDS011;11041;50.854;20.580;2022-08-19T00:31:42;20.13;;;17.83;;
21758;SDS011;11041;50.854;20.580;2022-08-19T00:34:10;22.35;;;18.33;;
21758;SDS011;11041;50.854;20.580;2022-08-19T00:36:39;20.42;;;18.00;;
21758;SDS011;11041;50.854;20.580;2022-08-19T00:39:08;20.40;;;17.98;;
21758;SDS011;11041;50.854;20.580;2022-08-19T00:41:35;21.15;;;17.75;;
21758;SDS011;11041;50.854;20.580;2022-08-19T00:46:51;22.90;;;17.55;;
21758;SDS011;11041;50.854;20.580;2022-08-19T00:49:34;27.77;;;19.05;;
21758;SDS011;11041;50.854;20.580;2022-08-19T00:52:19;19.83;;;17.73;;
21758;SDS011;11041;50.854;20.580;2022-08-19T00:54:56;22.00;;;18.15;;
21758;SDS011;11041;50.854;20.580;2022-08-19T00:57:29;23.50;;;18.52;;
21758;SDS011;11041;50.854;20.580;2022-08-19T01:00:04;25.88;;;18.25;;
21758;SDS011;11041;50.854;20.580;2022-08-19T01:02:40;21.90;;;18.30;;
21758;SDS011;11041;50.854;20.580;2022-08-19T01:05:13;20.85;;;18.20;;
21758;SDS011;11041;50.854;20.580;2022-08-19T01:07:48;20.58;;;17.42;;
21758;SDS011;11041;50.854;20.580;2022-08-19T01:10:18;23.50;;;17.17;;
21758;SDS011;11041;50.854;20.580;2022-08-19T01:12:50;19.52;;;17.50;;
21758;SDS011;11041;50.854;20.580;2022-08-19T01:15:22;21.27;;;17.85;;
21758;SDS011;11041;50.854;20.580;2022-08-19T01:17:55;22.45;;;17.55;;
21758;SDS011;11041;50.854;20.580;2022-08-19T01:20:26;18.58;;;16.67;;
21758;SDS011;11041;50.854;20.580;2022-08-19T01:22:54;21.00;;;18.05;;
21758;SDS011;11041;50.854;20.580;2022-08-19T01:25:26;19.10;;;17.10;;
21758;SDS011;11041;50.854;20.580;2022-08-19T01:28:22;21.27;;;17.67;;
21758;SDS011;11041;50.854;20.580;2022-08-19T01:30:53;21.38;;;17.45;;
21758;SDS011;11041;50.854;20.580;2022-08-19T01:33:20;19.85;;;17.75;;
21758;SDS011;11041;50.854;20.580;2022-08-19T01:35:47;20.15;;;17.15;;
21758;SDS011;11041;50.854;20.580;2022-08-19T01:38:22;21.33;;;17.42;;
21758;SDS011;11041;50.854;20.580;2022-08-19T01:40:53;19.85;;;17.77;;
21758;SDS011;11041;50.854;20.580;2022-08-19T01:43:21;21.33;;;17.25;;
21758;SDS011;11041;50.854;20.580;2022-08-19T01:45:47;20.30;;;17.30;;
21758;SDS011;11041;50.854;20.580;2022-08-19T01:48:14;19.80;;;17.38;;
21758;SDS011;11041;50.854;20.580;2022-08-19T01:50:41;20.75;;;16.77;;
21758;SDS011;11041;50.854;20.580;2022-08-19T01:53:10;19.95;;;17.85;;
21758;SDS011;11041;50.854;20.580;2022-08-19T01:55:39;20.42;;;17.08;;
21758;SDS011;11041;50.854;20.580;2022-08-19T01:58:12;22.17;;;18.20;;
21758;SDS011;11041;50.854;20.580;2022-08-19T02:00:50;20.88;;;18.65;;
21758;SDS011;11041;50.854;20.580;2022-08-19T02:03:17;20.92;;;17.45;;
21758;SDS011;11041;50.854;20.580;2022-08-19T02:05:43;21.83;;;17.63;;
21758;SDS011;11041;50.854;20.580;2022-08-19T02:08:12;25.50;;;17.73;;
21758;SDS011;11041;50.854;20.580;2022-08-19T02:10:42;20.90;;;17.45;;
21758;SDS011;11041;50.854;20.580;2022-08-19T02:13:11;25.30;;;17.52;;
21758;SDS011;11041;50.854;20.580;2022-08-19T02:15:39;22.02;;;17.95;;
21758;SDS011;11041;50.854;20.580;2022-08-19T02:18:06;21.50;;;17.05;;
21758;SDS011;11041;50.854;20.580;2022-08-19T02:20:34;20.05;;;17.73;;
21758;SDS011;11041;50.854;20.580;2022-08-19T02:23:03;19.73;;;17.60;;
21758;SDS011;11041;50.854;20.580;2022-08-19T02:25:30;19.10;;;16.98;;
21758;SDS011;11041;50.854;20.580;2022-08-19T02:27:57;20.67;;;17.73;;
21758;SDS011;11041;50.854;20.580;2022-08-19T02:30:24;21.63;;;18.33;;
21758;SDS011;11041;50.854;20.580;2022-08-19T02:32:51;21.05;;;17.60;;
21758;SDS011;11041;50.854;20.580;2022-08-19T02:35:18;18.77;;;16.88;;
21758;SDS011;11041;50.854;20.580;2022-08-19T02:37:46;20.42;;;18.05;;
21758;SDS011;11041;50.854;20.580;2022-08-19T02:40:33;22.20;;;18.02;;
21758;SDS011;11041;50.854;20.580;2022-08-19T02:43:02;19.15;;;16.60;;
21758;SDS011;11041;50.854;20.580;2022-08-19T02:45:34;21.80;;;18.02;;
21758;SDS011;11041;50.854;20.580;2022-08-19T02:48:05;20.15;;;17.92;;
21758;SDS011;11041;50.854;20.580;2022-08-19T02:50:31;21.52;;;17.15;;
21758;SDS011;11041;50.854;20.580;2022-08-19T02:52:58;18.60;;;16.70;;
21758;SDS011;11041;50.854;20.580;2022-08-19T02:55:25;18.48;;;16.08;;
21758;SDS011;11041;50.854;20.580;2022-08-19T02:57:51;19.52;;;17.40;;
21758;SDS011;11041;50.854;20.580;2022-08-19T03:00:18;20.13;;;17.33;;
21758;SDS011;11041;50.854;20.580;2022-08-19T03:02:45;22.30;;;17.52;;
21758;SDS011;11041;50.854;20.580;2022-08-19T03:05:12;19.25;;;16.98;;
21758;SDS011;11041;50.854;20.580;2022-08-19T03:07:38;22.13;;;18.25;;
21758;SDS011;11041;50.854;20.580;2022-08-19T03:10:05;18.45;;;16.55;;
21758;SDS011;11041;50.854;20.580;2022-08-19T03:12:35;19.35;;;17.33;;
21758;SDS011;11041;50.854;20.580;2022-08-19T03:15:07;18.73;;;16.60;;
21758;SDS011;11041;50.854;20.580;2022-08-19T03:17:35;20.63;;;17.27;;
21758;SDS011;11041;50.854;20.580;2022-08-19T03:20:02;19.23;;;17.20;;
21758;SDS011;11041;50.854;20.580;2022-08-19T03:22:30;19.30;;;16.63;;
21758;SDS011;11041;50.854;20.580;2022-08-19T03:24:57;19.85;;;16.90;;
21758;SDS011;11041;50.854;20.580;2022-08-19T03:27:24;19.25;;;17.23;;
21758;SDS011;11041;50.854;20.580;2022-08-19T03:29:51;22.17;;;17.10;;
21758;SDS011;11041;50.854;20.580;2022-08-19T03:32:18;19.13;;;16.92;;
21758;SDS011;11041;50.854;20.580;2022-08-19T03:34:44;19.20;;;17.17;;
21758;SDS011;11041;50.854;20.580;2022-08-19T03:37:11;21.90;;;16.92;;
21758;SDS011;11041;50.854;20.580;2022-08-19T03:39:39;21.52;;;18.23;;
21758;SDS011;11041;50.854;20.580;2022-08-19T03:42:07;19.17;;;17.23;;
21758;SDS011;11041;50.854;20.580;2022-08-19T03:44:35;19.85;;;17.50;;
21758;SDS011;11041;50.854;20.580;2022-08-19T03:47:03;20.00;;;17.88;;
21758;SDS011;11041;50.854;20.580;2022-08-19T03:49:31;22.08;;;18.05;;
21758;SDS011;11041;50.854;20.580;2022-08-19T03:52:00;21.45;;;17.90;;
21758;SDS011;11041;50.854;20.580;2022-08-19T03:54:28;21.52;;;17.63;;
21758;SDS011;11041;50.854;20.580;2022-08-19T03:56:55;22.38;;;18.65;;
21758;SDS011;11041;50.854;20.580;2022-08-19T03:59:24;23.45;;;17.42;;
21758;SDS011;11041;50.854;20.580;2022-08-19T04:01:59;20.05;;;17.98;;
21758;SDS011;11041;50.854;20.580;2022-08-19T04:04:32;21.70;;;17.83;;
21758;SDS011;11041;50.854;20.580;2022-08-19T04:06:58;23.15;;;19.23;;
21758;SDS011;11041;50.854;20.580;2022-08-19T04:09:25;21.05;;;17.52;;
21758;SDS011;11041;50.854;20.580;2022-08-19T04:11:54;21.40;;;18.50;;
21758;SDS011;11041;50.854;20.580;2022-08-19T04:14:26;21.90;;;18.35;;
21758;SDS011;11041;50.854;20.580;2022-08-19T04:16:59;21.10;;;18.05;;
21758;SDS011;11041;50.854;20.580;2022-08-19T04:19:32;22.67;;;17.27;;
21758;SDS011;11041;50.854;20.580;2022-08-19T04:22:02;20.45;;;18.25;;
21758;SDS011;11041;50.854;20.580;2022-08-19T04:24:29;21.08;;;17.02;;
21758;SDS011;11041;50.854;20.580;2022-08-19T04:26:56;21.30;;;18.33;;
21758;SDS011;11041;50.854;20.580;2022-08-19T04:29:26;23.15;;;18.05;;
21758;SDS011;11041;50.854;20.580;2022-08-19T04:31:54;21.25;;;17.25;;
21758;SDS011;11041;50.854;20.580;2022-08-19T04:34:23;19.42;;;17.20;;
21758;SDS011;11041;50.854;20.580;2022-08-19T04:36:54;19.50;;;17.27;;
21758;SDS011;11041;50.854;20.580;2022-08-19T04:39:24;18.70;;;16.80;;
21758;SDS011;11041;50.854;20.580;2022-08-19T04:42:16;22.63;;;16.88;;
21758;SDS011;11041;50.854;20.580;2022-08-19T04:45:02;19.75;;;17.40;;
21758;SDS011;11041;50.854;20.580;2022-08-19T04:47:39;19.35;;;17.27;;
21758;SDS011;11041;50.854;20.580;2022-08-19T04:50:09;19.92;;;17.08;;
21758;SDS011;11041;50.854;20.580;2022-08-19T04:52:38;21.67;;;18.35;;
21758;SDS011;11041;50.854;20.580;2022-08-19T04:55:09;18.75;;;16.77;;
21758;SDS011;11041;50.854;20.580;2022-08-19T04:57:38;18.60;;;16.52;;
21758;SDS011;11041;50.854;20.580;2022-08-19T05:00:07;18.38;;;16.40;;
21758;SDS011;11041;50.854;20.580;2022-08-19T05:02:35;20.10;;;17.35;;
21758;SDS011;11041;50.854;20.580;2022-08-19T05:05:02;21.23;;;16.92;;
21758;SDS011;11041;50.854;20.580;2022-08-19T05:07:32;19.17;;;16.33;;
21758;SDS011;11041;50.854;20.580;2022-08-19T05:09:59;18.40;;;15.93;;
21758;SDS011;11041;50.854;20.580;2022-08-19T05:12:27;20.02;;;17.20;;
21758;SDS011;11041;50.854;20.580;2022-08-19T05:14:54;35.35;;;17.55;;
21758;SDS011;11041;50.854;20.580;2022-08-19T05:17:22;24.27;;;15.95;;
21758;SDS011;11041;50.854;20.580;2022-08-19T05:19:50;24.48;;;16.10;;
21758;SDS011;11041;50.854;20.580;2022-08-19T05:22:35;19.15;;;15.75;;
21758;SDS011;11041;50.854;20.580;2022-08-19T05:25:11;21.70;;;15.60;;
21758;SDS011;11041;50.854;20.580;2022-08-19T05:27:44;22.33;;;15.50;;
21758;SDS011;11041;50.854;20.580;2022-08-19T05:30:11;16.85;;;14.90;;
21758;SDS011;11041;50.854;20.580;2022-08-19T05:32:39;16.92;;;14.95;;
21758;SDS011;11041;50.854;20.580;2022-08-19T05:35:07;15.93;;;14.27;;
21758;SDS011;11041;50.854;20.580;2022-08-19T05:37:35;16.05;;;13.57;;
21758;SDS011;11041;50.854;20.580;2022-08-19T05:40:02;15.52;;;13.15;;
21758;SDS011;11041;50.854;20.580;2022-08-19T05:42:30;17.65;;;14.23;;
21758;SDS011;11041;50.854;20.580;2022-08-19T05:44:57;15.35;;;13.85;;
21758;SDS011;11041;50.854;20.580;2022-08-19T05:47:24;15.38;;;13.73;;
21758;SDS011;11041;50.854;20.580;2022-08-19T05:49:51;16.33;;;12.90;;
21758;SDS011;11041;50.854;20.580;2022-08-19T05:52:17;15.82;;;13.35;;
21758;SDS011;11041;50.854;20.580;2022-08-19T05:54:45;15.10;;;13.07;;
21758;SDS011;11041;50.854;20.580;2022-08-19T05:57:14;14.10;;;12.60;;
21758;SDS011;11041;50.854;20.580;2022-08-19T05:59:41;14.38;;;13.05;;
21758;SDS011;11041;50.854;20.580;2022-08-19T06:02:07;15.98;;;13.32;;
21758;SDS011;11041;50.854;20.580;2022-08-19T06:04:34;19.27;;;12.93;;
21758;SDS011;11041;50.854;20.580;2022-08-19T06:07:00;14.95;;;12.55;;
21758;SDS011;11041;50.854;20.580;2022-08-19T06:09:27;13.50;;;12.20;;
21758;SDS011;11041;50.854;20.580;2022-08-19T06:11:56;15.57;;;12.23;;
21758;SDS011;11041;50.854;20.580;2022-08-19T06:14:27;14.00;;;12.55;;
21758;SDS011;11041;50.854;20.580;2022-08-19T06:17:02;15.25;;;12.23;;
21758;SDS011;11041;50.854;20.580;2022-08-19T06:19:29;12.93;;;11.70;;
21758;SDS011;11041;50.854;20.580;2022-08-19T06:21:57;13.80;;;12.35;;
21758;SDS011;11041;50.854;20.580;2022-08-19T06:24:26;13.02;;;11.65;;
21758;SDS011;11041;50.854;20.580;2022-08-19T06:26:56;16.77;;;12.85;;
21758;SDS011;11041;50.854;20.580;2022-08-19T06:29:25;15.32;;;12.23;;
21758;SDS011;11041;50.854;20.580;2022-08-19T06:31:54;15.35;;;12.00;;
21758;SDS011;11041;50.854;20.580;2022-08-19T06:34:23;13.50;;;12.18;;
21758;SDS011;11041;50.854;20.580;2022-08-19T06:36:53;13.70;;;12.30;;
21758;SDS011;11041;50.854;20.580;2022-08-19T06:39:23;15.07;;;12.02;;
21758;SDS011;11041;50.854;20.580;2022-08-19T06:41:54;14.25;;;12.48;;
21758;SDS011;11041;50.854;20.580;2022-08-19T06:44:25;14.70;;;12.75;;
21758;SDS011;11041;50.854;20.580;2022-08-19T06:46:54;13.98;;;12.05;;
21758;SDS011;11041;50.854;20.580;2022-08-19T06:49:21;13.02;;;11.82;;
21758;SDS011;11041;50.854;20.580;2022-08-19T06:51:50;12.82;;;11.18;;
21758;SDS011;11041;50.854;20.580;2022-08-19T06:54:18;12.05;;;10.85;;
21758;SDS011;11041;50.854;20.580;2022-08-19T06:56:45;13.35;;;12.13;;
21758;SDS011;11041;50.854;20.580;2022-08-19T06:59:14;13.35;;;11.95;;
21758;SDS011;11041;50.854;20.580;2022-08-19T07:01:45;12.40;;;11.15;;
21758;SDS011;11041;50.854;20.580;2022-08-19T07:04:18;12.93;;;11.63;;
21758;SDS011;11041;50.854;20.580;2022-08-19T07:06:55;14.93;;;11.57;;
21758;SDS011;11041;50.854;20.580;2022-08-19T07:09:26;13.02;;;11.68;;
21758;SDS011;11041;50.854;20.580;2022-08-19T07:11:54;12.48;;;11.27;;
21758;SDS011;11041;50.854;20.580;2022-08-19T07:14:22;13.35;;;11.90;;
21758;SDS011;11041;50.854;20.580;2022-08-19T07:16:54;13.00;;;11.50;;
21758;SDS011;11041;50.854;20.580;2022-08-19T07:19:23;16.50;;;11.43;;
21758;SDS011;11041;50.854;20.580;2022-08-19T07:21:53;12.13;;;10.93;;
21758;SDS011;11041;50.854;20.580;2022-08-19T07:24:22;12.48;;;10.75;;
21758;SDS011;11041;50.854;20.580;2022-08-19T07:26:52;15.95;;;11.95;;
21758;SDS011;11041;50.854;20.580;2022-08-19T07:29:23;13.65;;;10.68;;
21758;SDS011;11041;50.854;20.580;2022-08-19T07:31:50;12.95;;;10.00;;
21758;SDS011;11041;50.854;20.580;2022-08-19T07:34:21;11.27;;;10.27;;
21758;SDS011;11041;50.854;20.580;2022-08-19T07:36:49;10.52;;;9.50;;
21758;SDS011;11041;50.854;20.580;2022-08-19T07:39:20;11.98;;;10.55;;
21758;SDS011;11041;50.854;20.580;2022-08-19T07:41:54;10.60;;;9.60;;
21758;SDS011;11041;50.854;20.580;2022-08-19T07:44:24;13.23;;;9.57;;
21758;SDS011;11041;50.854;20.580;2022-08-19T07:46:52;12.13;;;9.73;;
21758;SDS011;11041;50.854;20.580;2022-08-19T07:49:23;12.20;;;9.52;;
21758;SDS011;11041;50.854;20.580;2022-08-19T07:51:51;11.75;;;9.77;;
21758;SDS011;11041;50.854;20.580;2022-08-19T07:54:21;9.73;;;8.85;;
21758;SDS011;11041;50.854;20.580;2022-08-19T07:56:51;11.50;;;9.50;;
21758;SDS011;11041;50.854;20.580;2022-08-19T07:59:18;11.30;;;9.90;;
21758;SDS011;11041;50.854;20.580;2022-08-19T08:01:46;14.38;;;9.88;;
21758;SDS011;11041;50.854;20.580;2022-08-19T08:04:16;11.05;;;9.95;;
21758;SDS011;11041;50.854;20.580;2022-08-19T08:07:03;11.52;;;9.38;;
21758;SDS011;11041;50.854;20.580;2022-08-19T08:09:50;10.55;;;9.55;;
21758;SDS011;11041;50.854;20.580;2022-08-19T08:12:22;11.85;;;9.88;;
21758;SDS011;11041;50.854;20.580;2022-08-19T08:14:55;10.35;;;9.02;;
21758;SDS011;11041;50.854;20.580;2022-08-19T08:17:28;11.10;;;8.30;;
21758;SDS011;11041;50.854;20.580;2022-08-19T08:19:56;13.50;;;8.88;;
21758;SDS011;11041;50.854;20.580;2022-08-19T08:22:23;10.00;;;9.00;;
21758;SDS011;11041;50.854;20.580;2022-08-19T08:25:11;11.23;;;8.93;;
21758;SDS011;11041;50.854;20.580;2022-08-19T08:27:42;10.07;;;9.00;;
21758;SDS011;11041;50.854;20.580;2022-08-19T08:30:30;12.27;;;9.13;;
21758;SDS011;11041;50.854;20.580;2022-08-19T08:33:02;10.35;;;8.55;;
21758;SDS011;11041;50.854;20.580;2022-08-19T08:35:29;15.00;;;9.25;;
21758;SDS011;11041;50.854;20.580;2022-08-19T08:37:56;10.82;;;8.85;;
21758;SDS011;11041;50.854;20.580;2022-08-19T08:43:09;11.27;;;8.93;;
21758;SDS011;11041;50.854;20.580;2022-08-19T08:46:01;9.38;;;8.52;;
21758;SDS011;11041;50.854;20.580;2022-08-19T08:54:13;9.75;;;8.48;;
21758;SDS011;11041;50.854;20.580;2022-08-19T08:56:45;10.35;;;9.15;;
21758;SDS011;11041;50.854;20.580;2022-08-19T08:59:21;12.25;;;8.70;;
21758;SDS011;11041;50.854;20.580;2022-08-19T09:01:58;9.23;;;8.43;;
21758;SDS011;11041;50.854;20.580;2022-08-19T09:04:25;11.63;;;9.32;;
21758;SDS011;11041;50.854;20.580;2022-08-19T09:09:49;9.50;;;8.65;;
21758;SDS011;11041;50.854;20.580;2022-08-19T09:12:36;10.73;;;9.02;;
21758;SDS011;11041;50.854;20.580;2022-08-19T09:15:25;10.93;;;9.50;;
21758;SDS011;11041;50.854;20.580;2022-08-19T09:18:02;9.95;;;8.85;;
21758;SDS011;11041;50.854;20.580;2022-08-19T09:20:30;10.13;;;9.13;;
21758;SDS011;11041;50.854;20.580;2022-08-19T09:22:57;11.77;;;9.57;;
21758;SDS011;11041;50.854;20.580;2022-08-19T09:25:24;11.07;;;9.52;;
21758;SDS011;11041;50.854;20.580;2022-08-19T09:27:52;11.95;;;9.35;;
21758;SDS011;11041;50.854;20.580;2022-08-19T09:30:23;13.27;;;8.80;;
21758;SDS011;11041;50.854;20.580;2022-08-19T09:32:54;16.80;;;10.02;;
21758;SDS011;11041;50.854;20.580;2022-08-19T09:35:21;10.57;;;9.38;;
21758;SDS011;11041;50.854;20.580;2022-08-19T09:37:54;10.88;;;9.77;;
21758;SDS011;11041;50.854;20.580;2022-08-19T09:40:24;10.25;;;9.25;;
21758;SDS011;11041;50.854;20.580;2022-08-19T09:42:56;12.40;;;9.55;;
21758;SDS011;11041;50.854;20.580;2022-08-19T09:45:26;11.77;;;10.38;;
21758;SDS011;11041;50.854;20.580;2022-08-19T09:47:53;10.80;;;9.90;;
21758;SDS011;11041;50.854;20.580;2022-08-19T09:50:20;10.38;;;9.43;;
21758;SDS011;11041;50.854;20.580;2022-08-19T09:52:49;11.60;;;9.82;;
21758;SDS011;11041;50.854;20.580;2022-08-19T09:55:18;11.45;;;10.27;;
21758;SDS011;11041;50.854;20.580;2022-08-19T09:57:45;12.45;;;10.07;;
21758;SDS011;11041;50.854;20.580;2022-08-19T10:00:12;11.95;;;9.75;;
21758;SDS011;11041;50.854;20.580;2022-08-19T10:02:39;11.73;;;9.82;;
21758;SDS011;11041;50.854;20.580;2022-08-19T10:05:05;10.63;;;9.60;;
21758;SDS011;11041;50.854;20.580;2022-08-19T10:07:51;10.85;;;9.48;;
21758;SDS011;11041;50.854;20.580;2022-08-19T10:10:18;10.70;;;9.55;;
21758;SDS011;11041;50.854;20.580;2022-08-19T10:12:44;10.88;;;9.57;;
21758;SDS011;11041;50.854;20.580;2022-08-19T10:15:13;10.40;;;9.40;;
21758;SDS011;11041;50.854;20.580;2022-08-19T10:17:40;11.57;;;9.63;;
21758;SDS011;11041;50.854;20.580;2022-08-19T10:20:07;11.32;;;9.18;;
21758;SDS011;11041;50.854;20.580;2022-08-19T10:22:34;10.40;;;9.40;;
21758;SDS011;11041;50.854;20.580;2022-08-19T10:25:03;12.52;;;9.10;;
21758;SDS011;11041;50.854;20.580;2022-08-19T10:27:31;11.75;;;9.55;;
21758;SDS011;11041;50.854;20.580;2022-08-19T10:29:58;10.63;;;8.75;;
21758;SDS011;11041;50.854;20.580;2022-08-19T10:32:24;11.82;;;9.90;;
21758;SDS011;11041;50.854;20.580;2022-08-19T10:34:51;10.00;;;9.10;;
21758;SDS011;11041;50.854;20.580;2022-08-19T10:37:18;11.30;;;8.80;;
21758;SDS011;11041;50.854;20.580;2022-08-19T10:39:45;11.30;;;9.52;;
21758;SDS011;11041;50.854;20.580;2022-08-19T10:42:13;10.20;;;9.20;;
21758;SDS011;11041;50.854;20.580;2022-08-19T10:44:41;10.75;;;9.85;;
21758;SDS011;11041;50.854;20.580;2022-08-19T10:47:08;10.82;;;9.73;;
21758;SDS011;11041;50.854;20.580;2022-08-19T10:49:38;12.30;;;9.68;;
21758;SDS011;11041;50.854;20.580;2022-08-19T10:52:26;10.45;;;9.40;;
21758;SDS011;11041;50.854;20.580;2022-08-19T10:55:00;9.95;;;8.93;;
21758;SDS011;11041;50.854;20.580;2022-08-19T10:57:47;11.88;;;9.65;;
21758;SDS011;11041;50.854;20.580;2022-08-19T11:00:14;11.20;;;9.85;;
21758;SDS011;11041;50.854;20.580;2022-08-19T11:02:41;10.52;;;9.52;;
21758;SDS011;11041;50.854;20.580;2022-08-19T11:05:08;10.13;;;8.88;;
21758;SDS011;11041;50.854;20.580;2022-08-19T11:07:37;10.63;;;9.60;;
21758;SDS011;11041;50.854;20.580;2022-08-19T11:10:06;10.38;;;9.40;;
21758;SDS011;11041;50.854;20.580;2022-08-19T11:12:38;10.25;;;8.43;;
21758;SDS011;11041;50.854;20.580;2022-08-19T11:15:06;10.48;;;9.38;;
21758;SDS011;11041;50.854;20.580;2022-08-19T11:17:39;12.23;;;9.57;;
21758;SDS011;11041;50.854;20.580;2022-08-19T11:20:08;10.20;;;9.20;;
21758;SDS011;11041;50.854;20.580;2022-08-19T11:22:38;11.23;;;10.10;;
21758;SDS011;11041;50.854;20.580;2022-08-19T11:25:05;9.93;;;8.85;;
21758;SDS011;11041;50.854;20.580;2022-08-19T11:27:37;10.70;;;9.15;;
21758;SDS011;11041;50.854;20.580;2022-08-19T11:30:10;11.07;;;9.50;;
21758;SDS011;11041;50.854;20.580;2022-08-19T11:32:40;10.60;;;9.23;;
21758;SDS011;11041;50.854;20.580;2022-08-19T11:35:07;10.40;;;9.13;;
21758;SDS011;11041;50.854;20.580;2022-08-19T11:37:39;11.18;;;9.13;;
21758;SDS011;11041;50.854;20.580;2022-08-19T11:40:31;10.88;;;9.90;;
21758;SDS011;11041;50.854;20.580;2022-08-19T11:43:21;10.20;;;9.18;;
21758;SDS011;11041;50.854;20.580;2022-08-19T11:46:05;10.05;;;9.05;;
21758;SDS011;11041;50.854;20.580;2022-08-19T11:51:35;11.95;;;10.00;;
21758;SDS011;11041;50.854;20.580;2022-08-19T11:54:09;13.35;;;9.55;;
21758;SDS011;11041;50.854;20.580;2022-08-19T11:56:38;10.00;;;8.93;;
21758;SDS011;11041;50.854;20.580;2022-08-19T11:59:05;10.45;;;9.38;;
21758;SDS011;11041;50.854;20.580;2022-08-19T12:01:33;11.05;;;10.05;;
21758;SDS011;11041;50.854;20.580;2022-08-19T12:03:59;11.88;;;9.90;;
21758;SDS011;11041;50.854;20.580;2022-08-19T12:06:27;10.30;;;9.25;;
21758;SDS011;11041;50.854;20.580;2022-08-19T12:08:58;9.77;;;8.85;;
21758;SDS011;11041;50.854;20.580;2022-08-19T12:11:35;11.10;;;9.05;;
21758;SDS011;11041;50.854;20.580;2022-08-19T12:14:04;9.70;;;8.75;;
21758;SDS011;11041;50.854;20.580;2022-08-19T12:16:31;10.00;;;8.68;;
21758;SDS011;11041;50.854;20.580;2022-08-19T12:18:59;10.05;;;8.55;;
21758;SDS011;11041;50.854;20.580;2022-08-19T12:21:30;11.55;;;8.57;;
21758;SDS011;11041;50.854;20.580;2022-08-19T12:24:00;10.18;;;9.18;;
21758;SDS011;11041;50.854;20.580;2022-08-19T12:26:33;10.35;;;8.70;;
21758;SDS011;11041;50.854;20.580;2022-08-19T12:29:00;11.15;;;9.27;;
21758;SDS011;11041;50.854;20.580;2022-08-19T12:31:27;9.18;;;8.25;;
21758;SDS011;11041;50.854;20.580;2022-08-19T12:33:54;9.77;;;8.77;;
21758;SDS011;11041;50.854;20.580;2022-08-19T12:36:21;9.35;;;8.45;;
21758;SDS011;11041;50.854;20.580;2022-08-19T12:38:50;9.93;;;8.93;;
21758;SDS011;11041;50.854;20.580;2022-08-19T12:41:18;12.60;;;9.30;;
21758;SDS011;11041;50.854;20.580;2022-08-19T12:43:47;9.43;;;8.57;;
21758;SDS011;11041;50.854;20.580;2022-08-19T12:46:18;9.27;;;8.35;;
21758;SDS011;11041;50.854;20.580;2022-08-19T12:48:45;9.95;;;8.50;;
21758;SDS011;11041;50.854;20.580;2022-08-19T12:51:13;12.18;;;8.85;;
21758;SDS011;11041;50.854;20.580;2022-08-19T12:53:44;10.40;;;8.68;;
21758;SDS011;11041;50.854;20.580;2022-08-19T12:56:13;8.90;;;8.13;;
21758;SDS011;11041;50.854;20.580;2022-08-19T12:58:40;10.23;;;8.50;;
21758;SDS011;11041;50.854;20.580;2022-08-19T13:01:09;9.05;;;8.05;;
21758;SDS011;11041;50.854;20.580;2022-08-19T13:03:39;9.25;;;8.40;;
21758;SDS011;11041;50.854;20.580;2022-08-19T13:06:06;10.75;;;8.85;;
21758;SDS011;11041;50.854;20.580;2022-08-19T13:08:35;8.75;;;7.90;;
21758;SDS011;11041;50.854;20.580;2022-08-19T13:11:08;9.98;;;8.15;;
21758;SDS011;11041;50.854;20.580;2022-08-19T13:13:43;9.00;;;7.82;;
21758;SDS011;11041;50.854;20.580;2022-08-19T13:16:14;10.68;;;8.10;;
21758;SDS011;11041;50.854;20.580;2022-08-19T13:18:41;9.60;;;8.02;;
21758;SDS011;11041;50.854;20.580;2022-08-19T13:21:12;9.98;;;8.27;;
21758;SDS011;11041;50.854;20.580;2022-08-19T13:23:41;10.57;;;8.25;;
21758;SDS011;11041;50.854;20.580;2022-08-19T13:26:09;9.02;;;8.18;;
21758;SDS011;11041;50.854;20.580;2022-08-19T13:28:41;10.23;;;8.50;;
21758;SDS011;11041;50.854;20.580;2022-08-19T13:31:36;9.63;;;8.00;;
21758;SDS011;11041;50.854;20.580;2022-08-19T13:34:33;8.85;;;7.60;;
21758;SDS011;11041;50.854;20.580;2022-08-19T13:37:24;8.18;;;7.47;;
21758;SDS011;11041;50.854;20.580;2022-08-19T13:40:24;9.82;;;8.75;;
21758;SDS011;11041;50.854;20.580;2022-08-19T13:43:15;13.77;;;8.18;;
21758;SDS011;11041;50.854;20.580;2022-08-19T13:45:44;8.93;;;8.10;;
21758;SDS011;11041;50.854;20.580;2022-08-19T13:48:11;10.07;;;8.40;;
21758;SDS011;11041;50.854;20.580;2022-08-19T13:50:39;8.93;;;7.72;;
21758;SDS011;11041;50.854;20.580;2022-08-19T13:53:09;9.15;;;8.23;;
21758;SDS011;11041;50.854;20.580;2022-08-19T13:55:40;15.80;;;8.70;;
21758;SDS011;11041;50.854;20.580;2022-08-19T13:58:09;9.13;;;8.43;;
21758;SDS011;11041;50.854;20.580;2022-08-19T14:00:42;9.20;;;8.32;;
21758;SDS011;11041;50.854;20.580;2022-08-19T14:03:11;9.45;;;8.30;;
21758;SDS011;11041;50.854;20.580;2022-08-19T14:05:39;10.18;;;8.23;;
21758;SDS011;11041;50.854;20.580;2022-08-19T14:08:05;9.23;;;8.20;;
21758;SDS011;11041;50.854;20.580;2022-08-19T14:10:32;9.15;;;8.35;;
21758;SDS011;11041;50.854;20.580;2022-08-19T14:13:00;11.27;;;8.50;;
21758;SDS011;11041;50.854;20.580;2022-08-19T14:15:29;12.25;;;8.68;;
21758;SDS011;11041;50.854;20.580;2022-08-19T14:17:56;8.93;;;8.18;;
21758;SDS011;11041;50.854;20.580;2022-08-19T14:20:24;9.38;;;8.57;;
21758;SDS011;11041;50.854;20.580;2022-08-19T14:22:51;8.90;;;8.30;;
21758;SDS011;11041;50.854;20.580;2022-08-19T14:25:21;9.93;;;8.15;;
21758;SDS011;11041;50.854;20.580;2022-08-19T14:27:55;9.95;;;8.93;;
21758;SDS011;11041;50.854;20.580;2022-08-19T14:30:25;10.63;;;8.88;;
21758;SDS011;11041;50.854;20.580;2022-08-19T14:32:58;8.95;;;8.15;;
21758;SDS011;11041;50.854;20.580;2022-08-19T14:35:27;9.30;;;8.40;;
21758;SDS011;11041;50.854;20.580;2022-08-19T14:37:59;9.32;;;8.63;;
21758;SDS011;11041;50.854;20.580;2022-08-19T14:40:30;9.05;;;8.23;;
21758;SDS011;11041;50.854;20.580;2022-08-19T14:43:01;8.90;;;8.20;;
21758;SDS011;11041;50.854;20.580;2022-08-19T14:45:34;10.55;;;7.90;;
21758;SDS011;11041;50.854;20.580;2022-08-19T14:48:04;9.05;;;8.35;;
21758;SDS011;11041;50.854;20.580;2022-08-19T14:50:33;8.75;;;7.57;;
21758;SDS011;11041;50.854;20.580;2022-08-19T14:53:06;8.55;;;7.75;;